sensor_id;sensor_type;location;lat;lon;timestamp;P1;durP1;ratioP1;P2;durP2;ratioP2
18159;SDS011;9205;52.032;4.314;2022-11-21T00:00:59;10.20;;;5.67;;
18159;SDS011;9205;52.032;4.314;2022-11-21T00:03:26;13.13;;;5.83;;
18159;SDS011;9205;52.032;4.314;2022-11-21T00:05:55;11.37;;;6.13;;
18159;SDS011;9205;52.032;4.314;2022-11-21T00:08:22;9.53;;;5.57;;
18159;SDS011;9205;52.032;4.314;2022-11-21T00:10:49;8.57;;;4.97;;
18159;SDS011;9205;52.032;4.314;2022-11-21T00:13:17;10.57;;;5.87;;
18159;SDS011;9205;52.032;4.314;2022-11-21T00:15:46;11.97;;;5.67;;
18159;SDS011;9205;52.032;4.314;2022-11-21T00:18:14;11.00;;;5.67;;
18159;SDS011;9205;52.032;4.314;2022-11-21T00:20:42;10.20;;;4.97;;
18159;SDS011;9205;52.032;4.314;2022-11-21T00:23:11;13.93;;;5.83;;
18159;SDS011;9205;52.032;4.314;2022-11-21T00:25:38;9.80;;;5.17;;
18159;SDS011;9205;52.032;4.314;2022-11-21T00:28:05;10.57;;;5.43;;
18159;SDS011;9205;52.032;4.314;2022-11-21T00:30:32;10.00;;;5.43;;
18159;SDS011;9205;52.032;4.314;2022-11-21T00:33:00;10.73;;;5.70;;
18159;SDS011;9205;52.032;4.314;2022-11-21T00:35:27;9.63;;;5.10;;
18159;SDS011;9205;52.032;4.314;2022-11-21T00:37:56;11.47;;;5.70;;
18159;SDS011;9205;52.032;4.314;2022-11-21T00:40:24;10.70;;;5.77;;
18159;SDS011;9205;52.032;4.314;2022-11-21T00:42:52;14.93;;;5.90;;
18159;SDS011;9205;52.032;4.314;2022-11-21T00:45:19;9.23;;;5.33;;
18159;SDS011;9205;52.032;4.314;2022-11-21T00:47:46;9.60;;;5.23;;
18159;SDS011;9205;52.032;4.314;2022-11-21T00:50:14;8.97;;;5.10;;
18159;SDS011;9205;52.032;4.314;2022-11-21T00:52:41;9.40;;;5.00;;
18159;SDS011;9205;52.032;4.314;2022-11-21T00:55:09;9.63;;;5.67;;
18159;SDS011;9205;52.032;4.314;2022-11-21T00:57:37;9.53;;;4.77;;
18159;SDS011;9205;52.032;4.314;2022-11-21T01:00:07;12.33;;;6.43;;
18159;SDS011;9205;52.032;4.314;2022-11-21T01:02:36;8.90;;;5.10;;
18159;SDS011;9205;52.032;4.314;2022-11-21T01:05:03;12.20;;;6.10;;
18159;SDS011;9205;52.032;4.314;2022-11-21T01:07:32;10.50;;;5.90;;
18159;SDS011;9205;52.032;4.314;2022-11-21T01:09:59;11.20;;;5.53;;
18159;SDS011;9205;52.032;4.314;2022-11-21T01:12:26;12.73;;;6.63;;
18159;SDS011;9205;52.032;4.314;2022-11-21T01:14:55;14.10;;;6.23;;
18159;SDS011;9205;52.032;4.314;2022-11-21T01:17:22;11.97;;;6.50;;
18159;SDS011;9205;52.032;4.314;2022-11-21T01:19:49;14.30;;;6.73;;
18159;SDS011;9205;52.032;4.314;2022-11-21T01:22:18;10.80;;;6.03;;
18159;SDS011;9205;52.032;4.314;2022-11-21T01:24:46;11.50;;;5.57;;
18159;SDS011;9205;52.032;4.314;2022-11-21T01:27:13;12.87;;;6.77;;
18159;SDS011;9205;52.032;4.314;2022-11-21T01:29:40;17.70;;;7.00;;
18159;SDS011;9205;52.032;4.314;2022-11-21T01:32:08;13.83;;;6.67;;
18159;SDS011;9205;52.032;4.314;2022-11-21T01:34:36;10.23;;;5.90;;
18159;SDS011;9205;52.032;4.314;2022-11-21T01:37:03;11.67;;;6.03;;
18159;SDS011;9205;52.032;4.314;2022-11-21T01:39:30;10.63;;;6.53;;
18159;SDS011;9205;52.032;4.314;2022-11-21T01:41:58;11.83;;;6.07;;
18159;SDS011;9205;52.032;4.314;2022-11-21T01:44:25;17.13;;;6.17;;
18159;SDS011;9205;52.032;4.314;2022-11-21T01:47:14;10.77;;;6.03;;
18159;SDS011;9205;52.032;4.314;2022-11-21T01:49:42;10.87;;;5.63;;
18159;SDS011;9205;52.032;4.314;2022-11-21T01:52:11;9.23;;;5.27;;
18159;SDS011;9205;52.032;4.314;2022-11-21T01:54:46;11.47;;;6.83;;
18159;SDS011;9205;52.032;4.314;2022-11-21T01:57:18;13.87;;;6.27;;
18159;SDS011;9205;52.032;4.314;2022-11-21T01:59:54;12.30;;;6.63;;
18159;SDS011;9205;52.032;4.314;2022-11-21T02:02:28;14.93;;;6.83;;
18159;SDS011;9205;52.032;4.314;2022-11-21T02:04:59;12.57;;;6.13;;
18159;SDS011;9205;52.032;4.314;2022-11-21T02:07:29;9.03;;;5.57;;
18159;SDS011;9205;52.032;4.314;2022-11-21T02:10:03;20.80;;;6.63;;
18159;SDS011;9205;52.032;4.314;2022-11-21T02:12:34;7.93;;;4.97;;
18159;SDS011;9205;52.032;4.314;2022-11-21T02:15:08;10.20;;;5.47;;
18159;SDS011;9205;52.032;4.314;2022-11-21T02:17:38;10.47;;;5.77;;
18159;SDS011;9205;52.032;4.314;2022-11-21T02:20:06;13.07;;;6.27;;
18159;SDS011;9205;52.032;4.314;2022-11-21T02:22:39;11.23;;;6.90;;
18159;SDS011;9205;52.032;4.314;2022-11-21T02:25:16;13.43;;;6.27;;
18159;SDS011;9205;52.032;4.314;2022-11-21T02:27:46;11.60;;;6.20;;
18159;SDS011;9205;52.032;4.314;2022-11-21T02:30:20;12.40;;;6.17;;
18159;SDS011;9205;52.032;4.314;2022-11-21T02:32:48;11.50;;;6.17;;
18159;SDS011;9205;52.032;4.314;2022-11-21T02:35:16;12.00;;;6.30;;
18159;SDS011;9205;52.032;4.314;2022-11-21T02:37:45;12.93;;;6.33;;
18159;SDS011;9205;52.032;4.314;2022-11-21T02:40:25;11.20;;;6.00;;
18159;SDS011;9205;52.032;4.314;2022-11-21T02:43:02;10.30;;;6.00;;
18159;SDS011;9205;52.032;4.314;2022-11-21T02:45:37;14.13;;;6.90;;
18159;SDS011;9205;52.032;4.314;2022-11-21T02:48:07;13.17;;;6.77;;
18159;SDS011;9205;52.032;4.314;2022-11-21T02:50:35;24.40;;;6.27;;
18159;SDS011;9205;52.032;4.314;2022-11-21T02:53:05;17.27;;;6.33;;
18159;SDS011;9205;52.032;4.314;2022-11-21T02:55:36;10.57;;;5.40;;
18159;SDS011;9205;52.032;4.314;2022-11-21T02:58:03;10.43;;;5.97;;
18159;SDS011;9205;52.032;4.314;2022-11-21T03:00:31;8.90;;;5.47;;
18159;SDS011;9205;52.032;4.314;2022-11-21T03:03:00;14.33;;;6.00;;
18159;SDS011;9205;52.032;4.314;2022-11-21T03:05:28;19.53;;;5.53;;
18159;SDS011;9205;52.032;4.314;2022-11-21T03:07:56;18.97;;;6.40;;
18159;SDS011;9205;52.032;4.314;2022-11-21T03:10:23;15.70;;;5.23;;
18159;SDS011;9205;52.032;4.314;2022-11-21T03:12:52;14.10;;;6.20;;
18159;SDS011;9205;52.032;4.314;2022-11-21T03:15:25;19.27;;;5.87;;
18159;SDS011;9205;52.032;4.314;2022-11-21T03:17:54;14.50;;;5.97;;
18159;SDS011;9205;52.032;4.314;2022-11-21T03:20:22;13.63;;;5.77;;
18159;SDS011;9205;52.032;4.314;2022-11-21T03:22:49;9.27;;;5.13;;
18159;SDS011;9205;52.032;4.314;2022-11-21T03:25:17;10.63;;;5.50;;
18159;SDS011;9205;52.032;4.314;2022-11-21T03:27:45;11.00;;;5.87;;
18159;SDS011;9205;52.032;4.314;2022-11-21T03:30:16;14.53;;;5.80;;
18159;SDS011;9205;52.032;4.314;2022-11-21T03:32:44;14.13;;;5.50;;
18159;SDS011;9205;52.032;4.314;2022-11-21T03:35:11;11.13;;;5.90;;
18159;SDS011;9205;52.032;4.314;2022-11-21T03:37:39;12.03;;;5.43;;
18159;SDS011;9205;52.032;4.314;2022-11-21T03:40:07;20.13;;;5.63;;
18159;SDS011;9205;52.032;4.314;2022-11-21T03:42:35;20.90;;;5.10;;
18159;SDS011;9205;52.032;4.314;2022-11-21T03:45:03;12.30;;;5.23;;
18159;SDS011;9205;52.032;4.314;2022-11-21T03:47:33;10.17;;;5.73;;
18159;SDS011;9205;52.032;4.314;2022-11-21T03:50:00;12.83;;;5.03;;
18159;SDS011;9205;52.032;4.314;2022-11-21T03:52:27;18.80;;;5.43;;
18159;SDS011;9205;52.032;4.314;2022-11-21T03:54:54;10.73;;;5.10;;
18159;SDS011;9205;52.032;4.314;2022-11-21T03:57:22;8.77;;;5.50;;
18159;SDS011;9205;52.032;4.314;2022-11-21T03:59:49;11.27;;;5.33;;
18159;SDS011;9205;52.032;4.314;2022-11-21T04:02:16;11.60;;;5.37;;
18159;SDS011;9205;52.032;4.314;2022-11-21T04:04:45;9.60;;;5.00;;
18159;SDS011;9205;52.032;4.314;2022-11-21T04:07:12;9.73;;;5.50;;
18159;SDS011;9205;52.032;4.314;2022-11-21T04:09:40;9.70;;;5.20;;
18159;SDS011;9205;52.032;4.314;2022-11-21T04:12:07;9.80;;;5.27;;
18159;SDS011;9205;52.032;4.314;2022-11-21T04:14:34;11.53;;;5.20;;
18159;SDS011;9205;52.032;4.314;2022-11-21T04:17:02;8.20;;;5.00;;
18159;SDS011;9205;52.032;4.314;2022-11-21T04:19:29;8.90;;;5.40;;
18159;SDS011;9205;52.032;4.314;2022-11-21T04:21:57;8.97;;;5.57;;
18159;SDS011;9205;52.032;4.314;2022-11-21T04:24:25;9.90;;;5.27;;
18159;SDS011;9205;52.032;4.314;2022-11-21T04:26:52;7.33;;;4.67;;
18159;SDS011;9205;52.032;4.314;2022-11-21T04:29:19;8.23;;;4.90;;
18159;SDS011;9205;52.032;4.314;2022-11-21T04:31:47;11.57;;;5.63;;
18159;SDS011;9205;52.032;4.314;2022-11-21T04:34:14;10.00;;;5.37;;
18159;SDS011;9205;52.032;4.314;2022-11-21T04:36:42;12.73;;;5.33;;
18159;SDS011;9205;52.032;4.314;2022-11-21T04:39:10;9.83;;;5.80;;
18159;SDS011;9205;52.032;4.314;2022-11-21T04:41:37;9.23;;;4.93;;
18159;SDS011;9205;52.032;4.314;2022-11-21T04:44:05;10.13;;;5.07;;
18159;SDS011;9205;52.032;4.314;2022-11-21T04:46:32;7.27;;;4.57;;
18159;SDS011;9205;52.032;4.314;2022-11-21T04:48:59;9.77;;;4.80;;
18159;SDS011;9205;52.032;4.314;2022-11-21T04:51:27;9.13;;;5.10;;
18159;SDS011;9205;52.032;4.314;2022-11-21T04:53:54;8.27;;;5.07;;
18159;SDS011;9205;52.032;4.314;2022-11-21T04:56:23;7.03;;;4.77;;
18159;SDS011;9205;52.032;4.314;2022-11-21T04:58:50;14.20;;;4.57;;
18159;SDS011;9205;52.032;4.314;2022-11-21T05:01:18;7.60;;;4.70;;
18159;SDS011;9205;52.032;4.314;2022-11-21T05:03:45;9.63;;;4.67;;
18159;SDS011;9205;52.032;4.314;2022-11-21T05:06:12;10.13;;;5.13;;
18159;SDS011;9205;52.032;4.314;2022-11-21T05:08:39;7.63;;;4.73;;
18159;SDS011;9205;52.032;4.314;2022-11-21T05:11:06;8.83;;;5.37;;
18159;SDS011;9205;52.032;4.314;2022-11-21T05:13:53;8.57;;;5.17;;
18159;SDS011;9205;52.032;4.314;2022-11-21T05:16:20;10.77;;;5.63;;
18159;SDS011;9205;52.032;4.314;2022-11-21T05:18:47;10.10;;;5.93;;
18159;SDS011;9205;52.032;4.314;2022-11-21T05:21:14;13.43;;;4.97;;
18159;SDS011;9205;52.032;4.314;2022-11-21T05:23:42;10.37;;;5.23;;
18159;SDS011;9205;52.032;4.314;2022-11-21T05:26:09;9.73;;;5.43;;
18159;SDS011;9205;52.032;4.314;2022-11-21T05:28:36;7.57;;;4.23;;
18159;SDS011;9205;52.032;4.314;2022-11-21T05:31:04;8.73;;;4.60;;
18159;SDS011;9205;52.032;4.314;2022-11-21T05:33:32;8.53;;;5.63;;
18159;SDS011;9205;52.032;4.314;2022-11-21T05:35:59;9.47;;;4.90;;
18159;SDS011;9205;52.032;4.314;2022-11-21T05:38:26;11.10;;;4.87;;
18159;SDS011;9205;52.032;4.314;2022-11-21T05:40:53;7.03;;;4.60;;
18159;SDS011;9205;52.032;4.314;2022-11-21T05:43:20;10.93;;;5.87;;
18159;SDS011;9205;52.032;4.314;2022-11-21T05:46:06;13.67;;;5.03;;
18159;SDS011;9205;52.032;4.314;2022-11-21T05:48:33;10.27;;;5.50;;
18159;SDS011;9205;52.032;4.314;2022-11-21T05:51:01;11.73;;;4.87;;
18159;SDS011;9205;52.032;4.314;2022-11-21T05:53:29;9.57;;;4.93;;
18159;SDS011;9205;52.032;4.314;2022-11-21T05:55:59;10.50;;;4.83;;
18159;SDS011;9205;52.032;4.314;2022-11-21T05:58:29;9.60;;;5.23;;
18159;SDS011;9205;52.032;4.314;2022-11-21T06:00:57;8.37;;;4.60;;
18159;SDS011;9205;52.032;4.314;2022-11-21T06:03:26;7.97;;;4.43;;
18159;SDS011;9205;52.032;4.314;2022-11-21T06:05:57;7.90;;;4.47;;
18159;SDS011;9205;52.032;4.314;2022-11-21T06:08:30;6.33;;;3.70;;
18159;SDS011;9205;52.032;4.314;2022-11-21T06:10:59;9.13;;;4.80;;
18159;SDS011;9205;52.032;4.314;2022-11-21T06:13:27;8.70;;;4.73;;
18159;SDS011;9205;52.032;4.314;2022-11-21T06:15:57;6.67;;;4.10;;
18159;SDS011;9205;52.032;4.314;2022-11-21T06:21:00;8.10;;;3.70;;
18159;SDS011;9205;52.032;4.314;2022-11-21T06:23:28;7.23;;;4.27;;
18159;SDS011;9205;52.032;4.314;2022-11-21T06:25:56;8.63;;;4.63;;
18159;SDS011;9205;52.032;4.314;2022-11-21T06:28:24;7.53;;;4.60;;
18159;SDS011;9205;52.032;4.314;2022-11-21T06:30:52;8.83;;;4.80;;
18159;SDS011;9205;52.032;4.314;2022-11-21T06:33:19;6.20;;;3.67;;
18159;SDS011;9205;52.032;4.314;2022-11-21T06:35:48;8.83;;;4.57;;
18159;SDS011;9205;52.032;4.314;2022-11-21T06:38:15;7.07;;;4.40;;
18159;SDS011;9205;52.032;4.314;2022-11-21T06:40:43;12.60;;;4.57;;
18159;SDS011;9205;52.032;4.314;2022-11-21T06:43:11;7.27;;;4.17;;
18159;SDS011;9205;52.032;4.314;2022-11-21T06:45:39;8.43;;;4.67;;
18159;SDS011;9205;52.032;4.314;2022-11-21T06:48:06;8.87;;;4.47;;
18159;SDS011;9205;52.032;4.314;2022-11-21T06:50:33;8.43;;;4.80;;
18159;SDS011;9205;52.032;4.314;2022-11-21T06:53:03;10.53;;;5.53;;
18159;SDS011;9205;52.032;4.314;2022-11-21T06:55:31;9.10;;;4.90;;
18159;SDS011;9205;52.032;4.314;2022-11-21T06:57:58;13.67;;;5.53;;
18159;SDS011;9205;52.032;4.314;2022-11-21T07:00:26;7.07;;;4.10;;
18159;SDS011;9205;52.032;4.314;2022-11-21T07:02:53;8.70;;;4.43;;
18159;SDS011;9205;52.032;4.314;2022-11-21T07:05:25;9.87;;;4.17;;
18159;SDS011;9205;52.032;4.314;2022-11-21T07:07:56;8.23;;;4.90;;
18159;SDS011;9205;52.032;4.314;2022-11-21T07:10:29;11.37;;;5.00;;
18159;SDS011;9205;52.032;4.314;2022-11-21T07:12:56;10.00;;;4.93;;
18159;SDS011;9205;52.032;4.314;2022-11-21T07:15:59;10.83;;;4.97;;
18159;SDS011;9205;52.032;4.314;2022-11-21T07:18:29;9.23;;;4.90;;
18159;SDS011;9205;52.032;4.314;2022-11-21T07:20:56;10.43;;;5.27;;
18159;SDS011;9205;52.032;4.314;2022-11-21T07:23:24;11.70;;;5.30;;
18159;SDS011;9205;52.032;4.314;2022-11-21T07:25:53;8.93;;;4.60;;
18159;SDS011;9205;52.032;4.314;2022-11-21T07:28:24;13.17;;;5.07;;
18159;SDS011;9205;52.032;4.314;2022-11-21T07:30:54;8.47;;;4.40;;
18159;SDS011;9205;52.032;4.314;2022-11-21T07:33:21;11.00;;;5.50;;
18159;SDS011;9205;52.032;4.314;2022-11-21T07:35:48;10.13;;;5.10;;
18159;SDS011;9205;52.032;4.314;2022-11-21T07:38:16;10.63;;;5.03;;
18159;SDS011;9205;52.032;4.314;2022-11-21T07:40:44;7.90;;;4.67;;
18159;SDS011;9205;52.032;4.314;2022-11-21T07:43:12;6.97;;;4.17;;
18159;SDS011;9205;52.032;4.314;2022-11-21T07:45:39;10.33;;;4.97;;
18159;SDS011;9205;52.032;4.314;2022-11-21T07:48:07;9.73;;;5.17;;
18159;SDS011;9205;52.032;4.314;2022-11-21T07:50:36;9.27;;;4.93;;
18159;SDS011;9205;52.032;4.314;2022-11-21T07:53:04;9.17;;;5.17;;
18159;SDS011;9205;52.032;4.314;2022-11-21T07:55:34;9.10;;;5.13;;
18159;SDS011;9205;52.032;4.314;2022-11-21T07:58:02;12.67;;;5.30;;
18159;SDS011;9205;52.032;4.314;2022-11-21T08:00:33;9.03;;;4.90;;
18159;SDS011;9205;52.032;4.314;2022-11-21T08:03:03;10.03;;;5.23;;
18159;SDS011;9205;52.032;4.314;2022-11-21T08:05:34;8.60;;;4.77;;
18159;SDS011;9205;52.032;4.314;2022-11-21T08:08:02;7.63;;;4.77;;
18159;SDS011;9205;52.032;4.314;2022-11-21T08:10:30;8.30;;;4.50;;
18159;SDS011;9205;52.032;4.314;2022-11-21T08:12:58;10.67;;;5.50;;
18159;SDS011;9205;52.032;4.314;2022-11-21T08:15:25;8.60;;;4.53;;
18159;SDS011;9205;52.032;4.314;2022-11-21T08:17:54;11.47;;;5.40;;
18159;SDS011;9205;52.032;4.314;2022-11-21T08:20:21;9.43;;;4.60;;
18159;SDS011;9205;52.032;4.314;2022-11-21T08:22:48;17.77;;;5.60;;
18159;SDS011;9205;52.032;4.314;2022-11-21T08:25:15;8.93;;;4.53;;
18159;SDS011;9205;52.032;4.314;2022-11-21T08:27:42;8.73;;;4.97;;
18159;SDS011;9205;52.032;4.314;2022-11-21T08:30:10;7.63;;;4.77;;
18159;SDS011;9205;52.032;4.314;2022-11-21T08:32:39;12.30;;;4.90;;
18159;SDS011;9205;52.032;4.314;2022-11-21T08:35:08;5.57;;;4.17;;
18159;SDS011;9205;52.032;4.314;2022-11-21T08:37:35;7.60;;;3.80;;
18159;SDS011;9205;52.032;4.314;2022-11-21T08:40:03;6.17;;;3.87;;
18159;SDS011;9205;52.032;4.314;2022-11-21T08:42:32;6.10;;;3.90;;
18159;SDS011;9205;52.032;4.314;2022-11-21T08:45:00;7.07;;;3.67;;
18159;SDS011;9205;52.032;4.314;2022-11-21T08:47:27;5.27;;;3.20;;
18159;SDS011;9205;52.032;4.314;2022-11-21T08:49:54;4.93;;;2.80;;
18159;SDS011;9205;52.032;4.314;2022-11-21T08:52:22;3.27;;;2.30;;
18159;SDS011;9205;52.032;4.314;2022-11-21T08:54:50;4.20;;;2.47;;
18159;SDS011;9205;52.032;4.314;2022-11-21T08:57:17;4.47;;;2.60;;
18159;SDS011;9205;52.032;4.314;2022-11-21T08:59:44;3.47;;;2.40;;
18159;SDS011;9205;52.032;4.314;2022-11-21T09:02:11;4.50;;;2.60;;
18159;SDS011;9205;52.032;4.314;2022-11-21T09:04:38;4.70;;;2.50;;
18159;SDS011;9205;52.032;4.314;2022-11-21T09:07:06;5.00;;;2.60;;
18159;SDS011;9205;52.032;4.314;2022-11-21T09:09:34;4.30;;;2.07;;
18159;SDS011;9205;52.032;4.314;2022-11-21T09:12:01;5.27;;;2.23;;
18159;SDS011;9205;52.032;4.314;2022-11-21T09:14:29;7.43;;;2.20;;
18159;SDS011;9205;52.032;4.314;2022-11-21T09:17:13;2.37;;;1.63;;
18159;SDS011;9205;52.032;4.314;2022-11-21T09:19:58;3.67;;;1.70;;
18159;SDS011;9205;52.032;4.314;2022-11-21T09:22:25;3.47;;;1.80;;
18159;SDS011;9205;52.032;4.314;2022-11-21T09:24:54;4.17;;;1.83;;
18159;SDS011;9205;52.032;4.314;2022-11-21T09:27:22;9.03;;;1.90;;
18159;SDS011;9205;52.032;4.314;2022-11-21T09:29:49;2.90;;;2.10;;
18159;SDS011;9205;52.032;4.314;2022-11-21T09:32:16;2.30;;;1.60;;
18159;SDS011;9205;52.032;4.314;2022-11-21T09:34:43;2.70;;;1.70;;
18159;SDS011;9205;52.032;4.314;2022-11-21T09:37:11;2.43;;;1.50;;
18159;SDS011;9205;52.032;4.314;2022-11-21T09:39:38;3.10;;;1.67;;
18159;SDS011;9205;52.032;4.314;2022-11-21T09:42:09;3.37;;;1.90;;
18159;SDS011;9205;52.032;4.314;2022-11-21T09:45:18;7.30;;;1.70;;
18159;SDS011;9205;52.032;4.314;2022-11-21T09:47:51;1.37;;;1.27;;
18159;SDS011;9205;52.032;4.314;2022-11-21T09:50:22;2.87;;;1.63;;
18159;SDS011;9205;52.032;4.314;2022-11-21T09:52:57;1.60;;;1.47;;
18159;SDS011;9205;52.032;4.314;2022-11-21T09:55:33;1.67;;;1.30;;
18159;SDS011;9205;52.032;4.314;2022-11-21T09:58:19;2.77;;;1.50;;
18159;SDS011;9205;52.032;4.314;2022-11-21T10:00:56;3.53;;;2.10;;
18159;SDS011;9205;52.032;4.314;2022-11-21T10:03:24;2.70;;;1.53;;
18159;SDS011;9205;52.032;4.314;2022-11-21T10:05:57;2.40;;;1.80;;
18159;SDS011;9205;52.032;4.314;2022-11-21T10:08:33;4.27;;;1.73;;
18159;SDS011;9205;52.032;4.314;2022-11-21T10:11:12;3.23;;;1.63;;
18159;SDS011;9205;52.032;4.314;2022-11-21T10:14:04;2.90;;;1.70;;
18159;SDS011;9205;52.032;4.314;2022-11-21T10:16:47;3.13;;;1.70;;
18159;SDS011;9205;52.032;4.314;2022-11-21T10:19:38;2.97;;;1.67;;
18159;SDS011;9205;52.032;4.314;2022-11-21T10:25:27;2.70;;;1.60;;
18159;SDS011;9205;52.032;4.314;2022-11-21T10:28:03;4.53;;;1.60;;
18159;SDS011;9205;52.032;4.314;2022-11-21T10:30:43;5.20;;;1.73;;
18159;SDS011;9205;52.032;4.314;2022-11-21T10:33:13;8.60;;;1.77;;
18159;SDS011;9205;52.032;4.314;2022-11-21T10:35:50;3.43;;;1.70;;
18159;SDS011;9205;52.032;4.314;2022-11-21T10:38:23;1.70;;;1.50;;
18159;SDS011;9205;52.032;4.314;2022-11-21T10:40:59;3.23;;;2.10;;
18159;SDS011;9205;52.032;4.314;2022-11-21T10:43:38;4.93;;;1.77;;
18159;SDS011;9205;52.032;4.314;2022-11-21T10:46:29;3.70;;;1.40;;
18159;SDS011;9205;52.032;4.314;2022-11-21T10:48:57;4.77;;;2.00;;
18159;SDS011;9205;52.032;4.314;2022-11-21T10:51:32;4.47;;;1.90;;
18159;SDS011;9205;52.032;4.314;2022-11-21T10:54:10;4.37;;;2.30;;
18159;SDS011;9205;52.032;4.314;2022-11-21T10:56:58;2.77;;;1.90;;
18159;SDS011;9205;52.032;4.314;2022-11-21T10:59:32;2.83;;;2.17;;
18159;SDS011;9205;52.032;4.314;2022-11-21T11:02:01;5.03;;;2.00;;
18159;SDS011;9205;52.032;4.314;2022-11-21T11:04:48;5.97;;;2.63;;
18159;SDS011;9205;52.032;4.314;2022-11-21T11:07:57;3.23;;;2.07;;
18159;SDS011;9205;52.032;4.314;2022-11-21T11:10:31;3.60;;;2.20;;
18159;SDS011;9205;52.032;4.314;2022-11-21T11:13:00;5.27;;;2.77;;
18159;SDS011;9205;52.032;4.314;2022-11-21T11:15:52;4.67;;;2.80;;
18159;SDS011;9205;52.032;4.314;2022-11-21T11:18:25;10.23;;;2.93;;
18159;SDS011;9205;52.032;4.314;2022-11-21T11:20:54;6.53;;;2.77;;
18159;SDS011;9205;52.032;4.314;2022-11-21T11:23:39;4.50;;;2.60;;
18159;SDS011;9205;52.032;4.314;2022-11-21T11:26:17;7.00;;;2.80;;
18159;SDS011;9205;52.032;4.314;2022-11-21T11:28:52;3.50;;;2.30;;
18159;SDS011;9205;52.032;4.314;2022-11-21T11:31:38;4.10;;;2.00;;
18159;SDS011;9205;52.032;4.314;2022-11-21T11:34:10;7.37;;;3.03;;
18159;SDS011;9205;52.032;4.314;2022-11-21T11:36:43;7.67;;;2.87;;
18159;SDS011;9205;52.032;4.314;2022-11-21T11:39:23;4.20;;;2.27;;
18159;SDS011;9205;52.032;4.314;2022-11-21T11:42:25;9.13;;;2.70;;
18159;SDS011;9205;52.032;4.314;2022-11-21T11:45:29;6.87;;;2.83;;
18159;SDS011;9205;52.032;4.314;2022-11-21T11:48:36;5.90;;;3.00;;
18159;SDS011;9205;52.032;4.314;2022-11-21T11:51:05;7.30;;;2.77;;
18159;SDS011;9205;52.032;4.314;2022-11-21T11:53:44;7.47;;;2.37;;
18159;SDS011;9205;52.032;4.314;2022-11-21T11:56:19;4.03;;;1.90;;
18159;SDS011;9205;52.032;4.314;2022-11-21T11:58:53;9.77;;;2.23;;
18159;SDS011;9205;52.032;4.314;2022-11-21T12:01:29;3.30;;;1.60;;
18159;SDS011;9205;52.032;4.314;2022-11-21T12:04:04;3.63;;;1.77;;
18159;SDS011;9205;52.032;4.314;2022-11-21T12:06:40;4.50;;;1.77;;
18159;SDS011;9205;52.032;4.314;2022-11-21T12:09:17;6.60;;;1.83;;
18159;SDS011;9205;52.032;4.314;2022-11-21T12:11:56;4.50;;;1.40;;
18159;SDS011;9205;52.032;4.314;2022-11-21T12:14:43;4.80;;;1.50;;
18159;SDS011;9205;52.032;4.314;2022-11-21T12:17:42;3.27;;;1.30;;
18159;SDS011;9205;52.032;4.314;2022-11-21T12:20:22;2.57;;;1.37;;
18159;SDS011;9205;52.032;4.314;2022-11-21T12:22:55;2.33;;;1.00;;
18159;SDS011;9205;52.032;4.314;2022-11-21T12:25:26;3.03;;;1.07;;
18159;SDS011;9205;52.032;4.314;2022-11-21T12:27:58;3.67;;;1.20;;
18159;SDS011;9205;52.032;4.314;2022-11-21T12:33:31;3.27;;;0.90;;
18159;SDS011;9205;52.032;4.314;2022-11-21T12:36:10;2.43;;;0.90;;
18159;SDS011;9205;52.032;4.314;2022-11-21T12:38:53;5.20;;;1.10;;
18159;SDS011;9205;52.032;4.314;2022-11-21T12:41:50;1.73;;;0.90;;
18159;SDS011;9205;52.032;4.314;2022-11-21T12:44:47;5.80;;;1.20;;
18159;SDS011;9205;52.032;4.314;2022-11-21T12:47:42;4.13;;;1.47;;
18159;SDS011;9205;52.032;4.314;2022-11-21T12:51:00;4.67;;;1.90;;
18159;SDS011;9205;52.032;4.314;2022-11-21T12:54:23;2.87;;;1.37;;
18159;SDS011;9205;52.032;4.314;2022-11-21T12:57:19;5.80;;;1.70;;
18159;SDS011;9205;52.032;4.314;2022-11-21T12:59:59;3.53;;;1.50;;
18159;SDS011;9205;52.032;4.314;2022-11-21T13:02:39;3.43;;;1.50;;
18159;SDS011;9205;52.032;4.314;2022-11-21T13:05:29;3.03;;;1.53;;
18159;SDS011;9205;52.032;4.314;2022-11-21T13:08:03;3.40;;;1.77;;
18159;SDS011;9205;52.032;4.314;2022-11-21T13:10:37;5.10;;;1.60;;
18159;SDS011;9205;52.032;4.314;2022-11-21T13:13:16;3.20;;;1.93;;
18159;SDS011;9205;52.032;4.314;2022-11-21T13:15:59;7.63;;;2.00;;
18159;SDS011;9205;52.032;4.314;2022-11-21T13:18:39;2.93;;;1.83;;
18159;SDS011;9205;52.032;4.314;2022-11-21T13:27:26;5.20;;;1.80;;
18159;SDS011;9205;52.032;4.314;2022-11-21T13:30:28;3.83;;;2.00;;
18159;SDS011;9205;52.032;4.314;2022-11-21T13:32:56;5.40;;;1.70;;
18159;SDS011;9205;52.032;4.314;2022-11-21T13:38:31;2.50;;;1.43;;
18159;SDS011;9205;52.032;4.314;2022-11-21T13:41:57;2.63;;;1.40;;
18159;SDS011;9205;52.032;4.314;2022-11-21T13:44:46;9.10;;;1.50;;
18159;SDS011;9205;52.032;4.314;2022-11-21T13:51:09;4.70;;;1.57;;
18159;SDS011;9205;52.032;4.314;2022-11-21T13:54:10;2.90;;;1.30;;
18159;SDS011;9205;52.032;4.314;2022-11-21T13:57:09;4.73;;;1.83;;
18159;SDS011;9205;52.032;4.314;2022-11-21T14:00:13;3.87;;;1.50;;
18159;SDS011;9205;52.032;4.314;2022-11-21T14:06:32;4.40;;;1.70;;
18159;SDS011;9205;52.032;4.314;2022-11-21T14:09:03;1.80;;;1.40;;
18159;SDS011;9205;52.032;4.314;2022-11-21T14:11:52;2.27;;;1.40;;
18159;SDS011;9205;52.032;4.314;2022-11-21T14:14:30;3.00;;;1.50;;
18159;SDS011;9205;52.032;4.314;2022-11-21T14:17:11;4.40;;;2.00;;
18159;SDS011;9205;52.032;4.314;2022-11-21T14:20:13;3.87;;;1.97;;
18159;SDS011;9205;52.032;4.314;2022-11-21T14:22:53;3.53;;;1.50;;
18159;SDS011;9205;52.032;4.314;2022-11-21T14:25:26;2.33;;;1.30;;
18159;SDS011;9205;52.032;4.314;2022-11-21T14:28:02;2.57;;;1.57;;
18159;SDS011;9205;52.032;4.314;2022-11-21T14:30:36;4.40;;;1.53;;
18159;SDS011;9205;52.032;4.314;2022-11-21T14:33:20;5.17;;;1.67;;
18159;SDS011;9205;52.032;4.314;2022-11-21T14:36:06;3.00;;;1.20;;
18159;SDS011;9205;52.032;4.314;2022-11-21T14:38:42;5.27;;;1.67;;
18159;SDS011;9205;52.032;4.314;2022-11-21T14:47:00;6.10;;;1.33;;
18159;SDS011;9205;52.032;4.314;2022-11-21T14:49:37;2.63;;;1.20;;
18159;SDS011;9205;52.032;4.314;2022-11-21T14:52:15;3.83;;;1.70;;
18159;SDS011;9205;52.032;4.314;2022-11-21T14:54:48;4.83;;;1.73;;
18159;SDS011;9205;52.032;4.314;2022-11-21T14:57:21;2.23;;;1.40;;
18159;SDS011;9205;52.032;4.314;2022-11-21T14:59:52;4.67;;;2.10;;
18159;SDS011;9205;52.032;4.314;2022-11-21T15:02:23;3.03;;;1.63;;
18159;SDS011;9205;52.032;4.314;2022-11-21T15:04:52;2.63;;;1.83;;
18159;SDS011;9205;52.032;4.314;2022-11-21T15:07:26;3.30;;;1.60;;
18159;SDS011;9205;52.032;4.314;2022-11-21T15:10:02;3.03;;;1.40;;
18159;SDS011;9205;52.032;4.314;2022-11-21T15:12:31;2.40;;;1.30;;
18159;SDS011;9205;52.032;4.314;2022-11-21T15:15:09;3.13;;;1.87;;
18159;SDS011;9205;52.032;4.314;2022-11-21T15:17:53;3.67;;;2.20;;
18159;SDS011;9205;52.032;4.314;2022-11-21T15:20:23;3.57;;;1.80;;
18159;SDS011;9205;52.032;4.314;2022-11-21T15:22:53;4.57;;;2.10;;
18159;SDS011;9205;52.032;4.314;2022-11-21T15:25:25;6.80;;;2.53;;
18159;SDS011;9205;52.032;4.314;2022-11-21T15:28:05;2.53;;;2.13;;
18159;SDS011;9205;52.032;4.314;2022-11-21T15:30:35;5.63;;;2.50;;
18159;SDS011;9205;52.032;4.314;2022-11-21T15:33:04;11.37;;;2.63;;
18159;SDS011;9205;52.032;4.314;2022-11-21T15:35:44;5.97;;;2.67;;
18159;SDS011;9205;52.032;4.314;2022-11-21T15:38:15;6.63;;;3.17;;
18159;SDS011;9205;52.032;4.314;2022-11-21T15:40:58;8.53;;;2.70;;
18159;SDS011;9205;52.032;4.314;2022-11-21T15:43:53;9.20;;;3.10;;
18159;SDS011;9205;52.032;4.314;2022-11-21T15:46:44;4.80;;;2.43;;
18159;SDS011;9205;52.032;4.314;2022-11-21T15:49:12;6.23;;;2.77;;
18159;SDS011;9205;52.032;4.314;2022-11-21T15:51:40;3.87;;;2.47;;
18159;SDS011;9205;52.032;4.314;2022-11-21T15:54:11;5.17;;;2.90;;
18159;SDS011;9205;52.032;4.314;2022-11-21T15:56:43;8.93;;;3.07;;
18159;SDS011;9205;52.032;4.314;2022-11-21T15:59:11;4.07;;;2.50;;
18159;SDS011;9205;52.032;4.314;2022-11-21T16:01:40;9.50;;;2.63;;
18159;SDS011;9205;52.032;4.314;2022-11-21T16:04:09;5.30;;;3.33;;